Yahata Maru — JL6477 — position and weather

sailwx.info

Track history (hours):
 
Tides and Currents Weather Stations Pressure Air Temp Water Temp Dewpoint Dewpoint Depression Visibility Wind Speed Wind Dir Waves Ship Positions

Yahata Maru

Last reported at 2014-Jul-28 03:32 UTC. Time now 2014-Jul-28 04:16 UTC.
Position N 35°28' E 139°43'.

Length 149 m; draft 4.7 m.

Type: Other ship. MMSI: 431400594.

Date/timePositionNaut miles runAvg speedWind from/ knotsBaromVisibWave heightAir tempDewpointWater temp
2014-Jul-28 03:32N 35°28' E 139°43'0 0.0
2014-Jul-28 02:32N 35°28' E 139°43'0 0.0
2014-Jul-28 01:32N 35°28' E 139°43'0 0.0
2014-Jul-28 00:32N 35°28' E 139°43'0 0.2
2014-Jul-27 23:33N 35°28' E 139°42'6 5.6
2014-Jul-27 22:33N 35°22' E 139°44'0 0.0
2014-Jul-27 21:32N 35°22' E 139°44'0 0.1
2014-Jul-27 20:32N 35°22' E 139°44'0 0.1
2014-Jul-27 19:32N 35°22' E 139°44'0 0.0
2014-Jul-27 18:32N 35°22' E 139°44'0 0.0
2014-Jul-27 17:32N 35°22' E 139°44'0 0.1
2014-Jul-27 16:29N 35°22' E 139°44'0 0.1
2014-Jul-27 15:32N 35°22' E 139°44'4 4.4
2014-Jul-27 14:33N 35°18' E 139°45'9 9.1
2014-Jul-27 13:34N 35°09' E 139°46'9 8.6
2014-Jul-27 12:34N 35°02' E 139°40'10 9.8
2014-Jul-27 11:30N 34°56' E 139°30'  
2014-Jul-23 12:33N 34°33' E 134°46'1111.2
2014-Jul-23 11:33N 34°38' E 134°59'1010.4
2014-Jul-23 10:33N 34°36' E 135°11'10 9.8
2014-Jul-23 09:33N 34°36' E 135°23'2 2.3
2014-Jul-23 08:29N 34°35' E 135°26'1 0.7
2014-Jul-23 07:33N 34°36' E 135°25'4 4.1
2014-Jul-23 06:33N 34°36' E 135°20'7 6.9
2014-Jul-23 05:33N 34°43' E 135°21'1 0.2
2014-Jul-23 02:16N 34°43' E 135°21'0 0.0
2014-Jul-23 01:22N 34°43' E 135°21'0 0.0
2014-Jul-23 00:28N 34°43' E 135°21'0 0.0
2014-Jul-22 23:28N 34°43' E 135°21'0 0.0
2014-Jul-22 21:28N 34°43' E 135°21'0 0.0
2014-Jul-22 20:28N 34°43' E 135°21'0 0.0
2014-Jul-22 19:28N 34°43' E 135°21'0 0.0
2014-Jul-22 18:28N 34°43' E 135°21'0 0.0
2014-Jul-22 17:28N 34°43' E 135°21'0 0.0
2014-Jul-22 16:22N 34°43' E 135°21'0 0.0
2014-Jul-22 15:28N 34°43' E 135°21'0 0.0
2014-Jul-22 14:33N 34°43' E 135°21'5 4.6
2014-Jul-22 13:33N 34°39' E 135°19'10 9.7
2014-Jul-22 12:33N 34°31' E 135°13'1010.0
2014-Jul-22 11:33N 34°23' E 135°05'9 9.4
2014-Jul-22 10:33N 34°15' E 134°60'1110.7
2014-Jul-22 09:33N 34°04' E 135°01'181 6.0
2014-Jul-21 03:29N 34°34' E 138°37'28 8.7
2014-Jul-21 00:13N 34°48' E 139°08'17 9.7
2014-Jul-20 22:30N 34°59' E 139°24'8 8.7
2014-Jul-20 21:33N 35°02' E 139°32'10 9.9
2014-Jul-20 20:33N 35°08' E 139°43'10 9.7
2014-Jul-20 19:34N 35°17' E 139°44'9 9.0
2014-Jul-20 18:34N 35°26' E 139°44'2 1.9
2014-Jul-20 17:33N 35°28' E 139°43'0 0.0
2014-Jul-20 16:33N 35°28' E 139°43'0 0.0
2014-Jul-20 15:34N 35°28' E 139°43'2 2.4
2014-Jul-20 14:33N 35°26' E 139°44'2 2.3
2014-Jul-20 13:31N 35°24' E 139°45'0 0.1
2014-Jul-20 12:31N 35°24' E 139°45'2 2.1
2014-Jul-20 11:33N 35°26' E 139°46'8 7.5
2014-Jul-20 10:33N 35°31' E 139°52'6 6.4
2014-Jul-20 09:33N 35°35' E 139°58'7 7.0
2014-Jul-20 08:33N 35°33' E 140°07'0 0.1
2014-Jul-20 07:32N 35°33' E 140°07'0 0.0
2014-Jul-20 06:32N 35°33' E 140°07'0 0.0
2014-Jul-20 05:29N 35°33' E 140°07'0 0.0
2014-Jul-20 04:29N 35°33' E 140°07'0 0.0
2014-Jul-20 03:29N 35°33' E 140°07'0 0.0
2014-Jul-20 02:32N 35°33' E 140°07'0 0.0
2014-Jul-20 01:32N 35°33' E 140°07'0 0.0
2014-Jul-20 00:32N 35°33' E 140°07'0 0.0
2014-Jul-19 23:29N 35°33' E 140°07'0 0.0
2014-Jul-19 22:29N 35°33' E 140°07'0 0.0
2014-Jul-19 21:26N 35°33' E 140°07'0 0.0
2014-Jul-19 20:32N 35°33' E 140°07'0 0.0
2014-Jul-19 19:29N 35°33' E 140°07'0 0.0
2014-Jul-19 18:29N 35°33' E 140°07'0 0.0
2014-Jul-19 17:20N 35°33' E 140°07'0 0.0
2014-Jul-19 16:23N 35°33' E 140°07'0 0.0
2014-Jul-19 15:32N 35°33' E 140°07'0 0.0
2014-Jul-19 14:32N 35°33' E 140°07'0 0.0
2014-Jul-19 13:32N 35°33' E 140°07'0 0.0
2014-Jul-19 12:29N 35°33' E 140°07'0 0.0
2014-Jul-19 11:26N 35°33' E 140°07'0 0.0
2014-Jul-19 10:32N 35°33' E 140°07'0 0.0
2014-Jul-19 09:32N 35°33' E 140°07'0 0.0
2014-Jul-19 08:32N 35°33' E 140°07'0 0.0
2014-Jul-19 07:32N 35°33' E 140°07'0 0.0
2014-Jul-19 06:29N 35°33' E 140°07'0 0.0
2014-Jul-19 05:32N 35°33' E 140°07'0 0.0
2014-Jul-19 04:32N 35°33' E 140°07'0 0.0
2014-Jul-19 03:32N 35°33' E 140°07'0 0.0
2014-Jul-19 02:23N 35°33' E 140°07'0 0.0
2014-Jul-19 01:32N 35°33' E 140°07'0 0.0
2014-Jul-19 00:26N 35°33' E 140°07'0 0.1
2014-Jul-18 23:34N 35°33' E 140°07'5 5.1
2014-Jul-18 22:33N 35°33' E 140°00'0 0.3
2014-Jul-18 21:32N 35°33' E 140°00'0 0.0
2014-Jul-18 20:32N 35°33' E 140°00'0 0.0
2014-Jul-18 19:29N 35°33' E 140°00'0 0.0
2014-Jul-18 18:29N 35°33' E 140°00'0 0.1
2014-Jul-18 17:33N 35°33' E 140°00'8 7.7
2014-Jul-18 16:33N 35°29' E 139°52'9 8.5
2014-Jul-18 15:33N 35°22' E 139°45'8 7.8
2014-Jul-18 14:33N 35°15' E 139°47'9 8.8
2014-Jul-18 13:33N 35°06' E 139°44'1010.1
2014-Jul-18 12:33N 34°59' E 139°34'1312.1
2014-Jul-18 11:28N 34°52' E 139°21'  
Track history (hours):
 
Tides and Currents Weather Stations Pressure Air Temp Water Temp Dewpoint Dewpoint Depression Visibility Wind Speed Wind Dir Waves Ship Positions

Yahata Maru

Last reported at 2014-Jul-28 03:32 UTC. Time now 2014-Jul-28 04:16 UTC.
Position N 35°28' E 139°43'.

Length 149 m; draft 4.7 m.

Type: Other ship. MMSI: 431400594.

Date/timePositionNaut miles runAvg speedWind from/ knotsBaromVisibWave heightAir tempDewpointWater temp
2014-Jul-28 03:32N 35°28' E 139°43'0 0.0
2014-Jul-28 02:32N 35°28' E 139°43'0 0.0
2014-Jul-28 01:32N 35°28' E 139°43'0 0.0
2014-Jul-28 00:32N 35°28' E 139°43'0 0.2
2014-Jul-27 23:33N 35°28' E 139°42'6 5.6
2014-Jul-27 22:33N 35°22' E 139°44'0 0.0
2014-Jul-27 21:32N 35°22' E 139°44'0 0.1
2014-Jul-27 20:32N 35°22' E 139°44'0 0.1
2014-Jul-27 19:32N 35°22' E 139°44'0 0.0
2014-Jul-27 18:32N 35°22' E 139°44'0 0.0
2014-Jul-27 17:32N 35°22' E 139°44'0 0.1
2014-Jul-27 16:29N 35°22' E 139°44'0 0.1
2014-Jul-27 15:32N 35°22' E 139°44'4 4.4
2014-Jul-27 14:33N 35°18' E 139°45'9 9.1
2014-Jul-27 13:34N 35°09' E 139°46'9 8.6
2014-Jul-27 12:34N 35°02' E 139°40'10 9.8
2014-Jul-27 11:30N 34°56' E 139°30'  
2014-Jul-23 12:33N 34°33' E 134°46'1111.2
2014-Jul-23 11:33N 34°38' E 134°59'1010.4
2014-Jul-23 10:33N 34°36' E 135°11'10 9.8
2014-Jul-23 09:33N 34°36' E 135°23'2 2.3
2014-Jul-23 08:29N 34°35' E 135°26'1 0.7
2014-Jul-23 07:33N 34°36' E 135°25'4 4.1
2014-Jul-23 06:33N 34°36' E 135°20'7 6.9
2014-Jul-23 05:33N 34°43' E 135°21'1 0.2
2014-Jul-23 02:16N 34°43' E 135°21'0 0.0
2014-Jul-23 01:22N 34°43' E 135°21'0 0.0
2014-Jul-23 00:28N 34°43' E 135°21'0 0.0
2014-Jul-22 23:28N 34°43' E 135°21'0 0.0
2014-Jul-22 21:28N 34°43' E 135°21'0 0.0
2014-Jul-22 20:28N 34°43' E 135°21'0 0.0
2014-Jul-22 19:28N 34°43' E 135°21'0 0.0
2014-Jul-22 18:28N 34°43' E 135°21'0 0.0
2014-Jul-22 17:28N 34°43' E 135°21'0 0.0
2014-Jul-22 16:22N 34°43' E 135°21'0 0.0
2014-Jul-22 15:28N 34°43' E 135°21'0 0.0
2014-Jul-22 14:33N 34°43' E 135°21'5 4.6
2014-Jul-22 13:33N 34°39' E 135°19'10 9.7
2014-Jul-22 12:33N 34°31' E 135°13'1010.0
2014-Jul-22 11:33N 34°23' E 135°05'9 9.4
2014-Jul-22 10:33N 34°15' E 134°60'1110.7
2014-Jul-22 09:33N 34°04' E 135°01'181 6.0
2014-Jul-21 03:29N 34°34' E 138°37'28 8.7
2014-Jul-21 00:13N 34°48' E 139°08'17 9.7
2014-Jul-20 22:30N 34°59' E 139°24'8 8.7
2014-Jul-20 21:33N 35°02' E 139°32'10 9.9
2014-Jul-20 20:33N 35°08' E 139°43'10 9.7
2014-Jul-20 19:34N 35°17' E 139°44'9 9.0
2014-Jul-20 18:34N 35°26' E 139°44'2 1.9
2014-Jul-20 17:33N 35°28' E 139°43'0 0.0
2014-Jul-20 16:33N 35°28' E 139°43'0 0.0
2014-Jul-20 15:34N 35°28' E 139°43'2 2.4
2014-Jul-20 14:33N 35°26' E 139°44'2 2.3
2014-Jul-20 13:31N 35°24' E 139°45'0 0.1
2014-Jul-20 12:31N 35°24' E 139°45'2 2.1
2014-Jul-20 11:33N 35°26' E 139°46'8 7.5
2014-Jul-20 10:33N 35°31' E 139°52'6 6.4
2014-Jul-20 09:33N 35°35' E 139°58'7 7.0
2014-Jul-20 08:33N 35°33' E 140°07'0 0.1
2014-Jul-20 07:32N 35°33' E 140°07'0 0.0
2014-Jul-20 06:32N 35°33' E 140°07'0 0.0
2014-Jul-20 05:29N 35°33' E 140°07'0 0.0
2014-Jul-20 04:29N 35°33' E 140°07'0 0.0
2014-Jul-20 03:29N 35°33' E 140°07'0 0.0
2014-Jul-20 02:32N 35°33' E 140°07'0 0.0
2014-Jul-20 01:32N 35°33' E 140°07'0 0.0
2014-Jul-20 00:32N 35°33' E 140°07'0 0.0
2014-Jul-19 23:29N 35°33' E 140°07'0 0.0
2014-Jul-19 22:29N 35°33' E 140°07'0 0.0
2014-Jul-19 21:26N 35°33' E 140°07'0 0.0
2014-Jul-19 20:32N 35°33' E 140°07'0 0.0
2014-Jul-19 19:29N 35°33' E 140°07'0 0.0
2014-Jul-19 18:29N 35°33' E 140°07'0 0.0
2014-Jul-19 17:20N 35°33' E 140°07'0 0.0
2014-Jul-19 16:23N 35°33' E 140°07'0 0.0
2014-Jul-19 15:32N 35°33' E 140°07'0 0.0
2014-Jul-19 14:32N 35°33' E 140°07'0 0.0
2014-Jul-19 13:32N 35°33' E 140°07'0 0.0
2014-Jul-19 12:29N 35°33' E 140°07'0 0.0
2014-Jul-19 11:26N 35°33' E 140°07'0 0.0
2014-Jul-19 10:32N 35°33' E 140°07'0 0.0
2014-Jul-19 09:32N 35°33' E 140°07'0 0.0
2014-Jul-19 08:32N 35°33' E 140°07'0 0.0
2014-Jul-19 07:32N 35°33' E 140°07'0 0.0
2014-Jul-19 06:29N 35°33' E 140°07'0 0.0
2014-Jul-19 05:32N 35°33' E 140°07'0 0.0
2014-Jul-19 04:32N 35°33' E 140°07'0 0.0
2014-Jul-19 03:32N 35°33' E 140°07'0 0.0
2014-Jul-19 02:23N 35°33' E 140°07'0 0.0
2014-Jul-19 01:32N 35°33' E 140°07'0 0.0
2014-Jul-19 00:26N 35°33' E 140°07'0 0.1
2014-Jul-18 23:34N 35°33' E 140°07'5 5.1
2014-Jul-18 22:33N 35°33' E 140°00'0 0.3
2014-Jul-18 21:32N 35°33' E 140°00'0 0.0
2014-Jul-18 20:32N 35°33' E 140°00'0 0.0
2014-Jul-18 19:29N 35°33' E 140°00'0 0.0
2014-Jul-18 18:29N 35°33' E 140°00'0 0.1
2014-Jul-18 17:33N 35°33' E 140°00'8 7.7
2014-Jul-18 16:33N 35°29' E 139°52'9 8.5
2014-Jul-18 15:33N 35°22' E 139°45'8 7.8
2014-Jul-18 14:33N 35°15' E 139°47'9 8.8
2014-Jul-18 13:33N 35°06' E 139°44'1010.1
2014-Jul-18 12:33N 34°59' E 139°34'1312.1
2014-Jul-18 11:28N 34°52' E 139°21'  

Dump ship's entire track history